Geneva, Florida
Current Conditions -  °F | °C
As of 4:53 PM on Sunday 23 Nov 2014 (Local Time) from KSFB Reporting Station
Broken Clouds Broken Clouds  
Wind Chill: 82°   Ceiling: 6000
Heat Index: 85°   Visibility: 10mi
Dew Point: 69°   Wind: 10mph
Humidity: 65%   Direction: 200°SSW
Pressure: 29.88"   Gusts: NA
Location:  28.74°N, 81.12°W
Report Text: KSFB 232153Z 20009KT 10SM SCT048 BKN060 BKN080 28/21 A2988 RMK AO2 SLP118 T02780206
Loading
Personal Weather Stations






























Interactive Weather Map New forecast layout! Learn more

10-Day Weather Forecast

Advertisements
Track Severe Weather on mobile